createdAt,value
2018-06-02T00:01:04.441Z,17.10
2018-06-02T00:03:32.025Z,17.10
2018-06-02T00:05:59.641Z,17.10
2018-06-02T00:08:27.214Z,17.00
2018-06-02T00:10:54.841Z,17.00
2018-06-02T00:13:23.198Z,16.90
2018-06-02T00:15:50.826Z,16.80
2018-06-02T00:18:18.440Z,16.70
2018-06-02T00:20:46.783Z,16.70
2018-06-02T00:23:14.392Z,16.60
2018-06-02T00:25:42.745Z,16.60
2018-06-02T00:28:10.521Z,16.60
2018-06-02T00:30:38.867Z,16.60
2018-06-02T00:33:06.481Z,16.60
2018-06-02T00:35:34.060Z,16.60
2018-06-02T00:38:01.673Z,16.60
2018-06-02T00:40:29.299Z,16.60
2018-06-02T00:42:56.886Z,16.60
2018-06-02T00:45:24.509Z,16.60
2018-06-02T00:47:52.140Z,16.60
2018-06-02T00:50:19.721Z,16.60
2018-06-02T00:52:47.307Z,16.50
2018-06-02T00:55:14.932Z,16.50
2018-06-02T00:57:42.511Z,16.50
2018-06-02T01:00:10.955Z,16.50
2018-06-02T01:02:38.575Z,16.40
2018-06-02T01:05:06.195Z,16.40
2018-06-02T01:07:34.541Z,16.40
2018-06-02T01:10:02.171Z,16.30
2018-06-02T01:12:29.746Z,16.40
2018-06-02T01:14:57.429Z,16.30
2018-06-02T01:17:25.005Z,16.30
2018-06-02T01:19:52.585Z,16.30
2018-06-02T01:22:20.196Z,16.30
2018-06-02T01:24:47.774Z,16.30
2018-06-02T01:27:15.398Z,16.30
2018-06-02T01:29:42.984Z,16.30
2018-06-02T01:32:10.617Z,16.30
2018-06-02T01:34:38.189Z,16.30
2018-06-02T01:37:05.769Z,16.30
2018-06-02T01:39:33.394Z,16.30
2018-06-02T01:42:00.986Z,16.30
2018-06-02T01:44:28.609Z,16.30
2018-06-02T01:46:56.207Z,16.30
2018-06-02T01:49:23.833Z,16.20
2018-06-02T01:51:51.404Z,16.30
2018-06-02T01:54:19.026Z,16.30
2018-06-02T01:56:46.614Z,16.20
2018-06-02T01:59:14.230Z,16.20
2018-06-02T02:01:41.861Z,16.20
2018-06-02T02:04:09.479Z,16.20
2018-06-02T02:06:37.091Z,16.20
2018-06-02T02:09:06.502Z,16.20
2018-06-02T02:11:34.126Z,16.20
2018-06-02T02:14:01.710Z,16.20
2018-06-02T02:16:29.330Z,16.30
2018-06-02T02:18:57.708Z,16.30
2018-06-02T02:21:26.054Z,16.20
2018-06-02T02:23:53.685Z,16.20
2018-06-02T02:26:21.262Z,16.20
2018-06-02T02:28:48.838Z,16.20
2018-06-02T02:31:16.458Z,16.30
2018-06-02T02:33:44.145Z,16.30
2018-06-02T02:36:11.765Z,16.20
2018-06-02T02:38:39.357Z,16.20
2018-06-02T02:41:07.013Z,16.20
2018-06-02T02:43:34.647Z,16.10
2018-06-02T02:46:02.234Z,16.10
2018-06-02T02:48:29.812Z,16.10
2018-06-02T02:50:57.472Z,16.10
2018-06-02T02:53:25.054Z,16.10
2018-06-02T02:55:52.670Z,16.10
2018-06-02T02:58:20.306Z,16.10
2018-06-02T03:00:47.887Z,16.10
2018-06-02T03:03:15.465Z,16.10
2018-06-02T03:05:43.096Z,16.20
2018-06-02T03:08:11.445Z,16.10
2018-06-02T03:10:39.873Z,16.10
2018-06-02T03:13:07.494Z,16.20
2018-06-02T03:15:35.078Z,16.10
2018-06-02T03:18:03.470Z,16.10
2018-06-02T03:20:31.044Z,16.10
2018-06-02T03:22:58.667Z,16.10
2018-06-02T03:25:26.287Z,16.10
2018-06-02T03:27:53.864Z,16.10
2018-06-02T03:30:21.485Z,16.10
2018-06-02T03:32:49.071Z,16.10
2018-06-02T03:35:16.701Z,16.10
2018-06-02T03:37:45.045Z,16.10
2018-06-02T03:40:12.641Z,16.00
2018-06-02T03:42:40.261Z,16.00
2018-06-02T03:45:07.863Z,16.00
2018-06-02T03:47:35.480Z,16.00
2018-06-02T03:50:03.115Z,16.00
2018-06-02T03:52:30.733Z,16.00
2018-06-02T03:54:59.073Z,16.00
2018-06-02T03:57:26.691Z,16.00
2018-06-02T03:59:54.277Z,15.90
2018-06-02T04:02:21.904Z,15.90
2018-06-02T04:04:49.509Z,15.90
2018-06-02T04:07:17.094Z,15.90
2018-06-02T04:09:44.711Z,15.90
2018-06-02T04:12:12.294Z,16.00
2018-06-02T04:14:39.918Z,16.00
2018-06-02T04:17:07.506Z,16.00
2018-06-02T04:19:35.121Z,16.00
2018-06-02T04:22:02.704Z,16.00
2018-06-02T04:24:30.332Z,16.00
2018-06-02T04:26:57.918Z,16.00
2018-06-02T04:29:26.266Z,15.90
2018-06-02T04:31:53.899Z,15.90
2018-06-02T04:34:21.500Z,15.80
2018-06-02T04:36:49.215Z,15.80
2018-06-02T04:39:16.802Z,15.90
2018-06-02T04:41:44.421Z,15.90
2018-06-02T04:44:12.013Z,15.90
2018-06-02T04:46:39.632Z,15.90
2018-06-02T04:49:07.210Z,15.90
2018-06-02T04:51:34.808Z,15.90
2018-06-02T04:54:02.482Z,15.90
2018-06-02T04:56:30.048Z,15.90
2018-06-02T04:58:57.669Z,15.80
2018-06-02T05:01:25.250Z,15.90
2018-06-02T05:03:52.876Z,15.90
2018-06-02T05:06:20.457Z,15.80
2018-06-02T05:08:48.069Z,15.80
2018-06-02T05:11:16.430Z,15.80
2018-06-02T05:13:44.134Z,15.80
2018-06-02T05:16:11.761Z,15.80
2018-06-02T05:18:39.353Z,15.90
2018-06-02T05:21:06.981Z,15.90
2018-06-02T05:23:34.580Z,15.90
2018-06-02T05:26:02.170Z,15.90
2018-06-02T05:28:29.788Z,15.90
2018-06-02T05:30:57.416Z,15.90
2018-06-02T05:33:25.042Z,15.90
2018-06-02T05:35:52.615Z,15.90
2018-06-02T05:38:20.228Z,15.90
2018-06-02T05:40:48.577Z,16.00
2018-06-02T05:43:16.952Z,16.00
2018-06-02T05:45:44.576Z,15.90
2018-06-02T05:48:12.161Z,16.00
2018-06-02T05:50:39.778Z,16.00
2018-06-02T05:53:08.126Z,16.00
2018-06-02T05:55:35.742Z,16.00
2018-06-02T05:58:03.321Z,16.00
2018-06-02T06:00:30.941Z,16.00
2018-06-02T06:02:58.565Z,16.00
2018-06-02T06:05:26.147Z,16.00
2018-06-02T06:07:53.765Z,16.00
2018-06-02T06:10:21.348Z,16.00
2018-06-02T06:12:48.973Z,16.00
2018-06-02T06:15:16.563Z,16.00
2018-06-02T06:17:44.185Z,16.00
2018-06-02T06:20:11.760Z,16.00
2018-06-02T06:22:41.205Z,16.00
2018-06-02T06:25:08.831Z,16.10
2018-06-02T06:27:36.410Z,16.10
2018-06-02T06:30:04.026Z,16.10
2018-06-02T06:32:32.362Z,16.10
2018-06-02T06:34:59.935Z,16.00
2018-06-02T06:37:27.547Z,16.10
2018-06-02T06:39:55.164Z,16.10
2018-06-02T06:42:22.745Z,16.10
2018-06-02T06:44:51.125Z,16.10
2018-06-02T06:47:19.463Z,16.10
2018-06-02T06:49:47.288Z,16.10
2018-06-02T06:52:14.855Z,16.10
2018-06-02T06:54:42.452Z,16.10
2018-06-02T06:57:10.065Z,16.20
2018-06-02T06:59:37.679Z,16.20
2018-06-02T07:02:05.259Z,16.30
2018-06-02T07:04:33.660Z,16.30
2018-06-02T07:07:02.008Z,16.30
2018-06-02T07:09:29.571Z,16.30
2018-06-02T07:11:57.228Z,16.30
2018-06-02T07:14:24.804Z,16.40
2018-06-02T07:16:52.385Z,16.40
2018-06-02T07:19:19.956Z,16.50
2018-06-02T07:21:47.584Z,16.50
2018-06-02T07:24:15.196Z,16.50
2018-06-02T07:26:42.773Z,16.50
2018-06-02T07:29:10.390Z,16.50
2018-06-02T07:31:38.729Z,16.50
2018-06-02T07:34:06.339Z,16.50
2018-06-02T07:36:33.908Z,16.50
2018-06-02T07:39:01.524Z,16.60
2018-06-02T07:41:29.096Z,16.60
2018-06-02T07:43:57.473Z,16.70
2018-06-02T07:46:25.047Z,16.70
2018-06-02T07:48:53.424Z,16.70
2018-06-02T07:51:21.770Z,16.70
2018-06-02T07:53:49.380Z,16.70
2018-06-02T07:56:16.956Z,16.80
2018-06-02T07:58:44.773Z,16.80
2018-06-02T08:01:12.347Z,16.80
2018-06-02T08:03:40.689Z,16.80
2018-06-02T08:06:08.299Z,16.70
2018-06-02T08:08:35.932Z,16.80
2018-06-02T08:11:03.547Z,16.90
2018-06-02T08:13:31.124Z,16.90
2018-06-02T08:15:58.741Z,17.00
2018-06-02T08:18:26.313Z,17.00
2018-06-02T08:20:53.894Z,17.20
2018-06-02T08:23:21.605Z,17.20
2018-06-02T08:25:49.204Z,17.20
2018-06-02T08:28:16.786Z,17.20
2018-06-02T08:30:44.441Z,17.10
2018-06-02T08:33:12.016Z,17.10
2018-06-02T08:35:39.599Z,17.10
2018-06-02T08:38:07.235Z,17.10
2018-06-02T08:40:34.811Z,17.10
2018-06-02T08:43:02.430Z,17.10
2018-06-02T08:45:30.006Z,17.10
2018-06-02T08:47:57.575Z,17.10
2018-06-02T08:50:25.205Z,17.00
2018-06-02T08:52:52.774Z,16.90
2018-06-02T08:55:20.345Z,16.90
2018-06-02T08:57:47.952Z,16.80
2018-06-02T09:00:15.569Z,16.80
2018-06-02T09:02:43.146Z,16.80
2018-06-02T09:05:10.766Z,16.70
2018-06-02T09:07:39.109Z,16.70
2018-06-02T09:10:06.715Z,16.70
2018-06-02T09:12:34.337Z,16.70
2018-06-02T09:15:01.953Z,16.70
2018-06-02T09:17:29.530Z,16.70
2018-06-02T09:19:57.397Z,16.70
2018-06-02T09:22:24.967Z,16.70
2018-06-02T09:24:52.577Z,16.70
2018-06-02T09:27:20.907Z,16.70
2018-06-02T09:29:48.514Z,16.70
2018-06-02T09:32:16.149Z,16.70
2018-06-02T09:34:43.774Z,16.80
2018-06-02T09:37:11.349Z,16.80
2018-06-02T09:39:38.928Z,16.90
2018-06-02T09:42:06.553Z,16.80
2018-06-02T09:44:34.141Z,16.80
2018-06-02T09:47:01.718Z,16.80
2018-06-02T09:49:29.346Z,16.80
2018-06-02T09:51:56.920Z,16.80
2018-06-02T09:54:24.542Z,16.80
2018-06-02T09:56:52.120Z,16.80
2018-06-02T09:59:19.735Z,16.80
2018-06-02T10:01:47.309Z,16.80
2018-06-02T10:04:14.915Z,16.80
2018-06-02T10:06:42.492Z,16.90
2018-06-02T10:09:10.109Z,16.90
2018-06-02T10:11:37.679Z,16.90
2018-06-02T10:14:05.306Z,16.90
2018-06-02T10:16:32.927Z,17.00
2018-06-02T10:19:00.543Z,17.00
2018-06-02T10:21:28.877Z,17.00
2018-06-02T10:23:56.569Z,17.00
2018-06-02T10:26:24.144Z,17.00
2018-06-02T10:28:52.815Z,17.00
2018-06-02T10:31:20.396Z,17.00
2018-06-02T10:33:48.797Z,17.10
2018-06-02T10:36:16.373Z,17.10
2018-06-02T10:38:43.994Z,17.20
2018-06-02T10:41:12.337Z,17.40
2018-06-02T10:43:39.940Z,17.30
2018-06-02T10:46:07.548Z,17.40
2018-06-02T10:48:35.132Z,17.40
2018-06-02T10:51:02.740Z,17.40
2018-06-02T10:53:30.357Z,17.40
2018-06-02T10:55:57.986Z,17.40
2018-06-02T10:58:25.606Z,17.40
2018-06-02T11:00:53.152Z,17.40
2018-06-02T11:03:20.762Z,17.40
2018-06-02T11:05:48.386Z,17.50
2018-06-02T11:08:16.758Z,17.60
2018-06-02T11:10:45.097Z,17.60
2018-06-02T11:13:12.711Z,17.60
2018-06-02T11:15:41.089Z,17.70
2018-06-02T11:18:09.432Z,17.60
2018-06-02T11:20:37.042Z,17.60
2018-06-02T11:23:04.662Z,17.60
2018-06-02T11:25:32.232Z,17.70
2018-06-02T11:27:59.860Z,17.70
2018-06-02T11:30:27.435Z,17.80
2018-06-02T11:32:55.093Z,17.90
2018-06-02T11:35:22.675Z,18.00
2018-06-02T11:37:50.301Z,18.30
2018-06-02T11:40:17.923Z,18.60
2018-06-02T11:42:45.505Z,18.60
2018-06-02T11:45:13.092Z,18.60
2018-06-02T11:47:40.715Z,18.60
2018-06-02T11:50:08.326Z,18.60
2018-06-02T11:52:35.935Z,18.60
2018-06-02T11:55:03.576Z,18.60
2018-06-02T11:57:31.193Z,18.60
2018-06-02T11:59:58.916Z,18.70
2018-06-02T12:02:27.264Z,19.10
2018-06-02T12:04:54.871Z,19.10
2018-06-02T12:07:22.452Z,19.30
2018-06-02T12:09:50.020Z,19.50
2018-06-02T12:12:17.636Z,19.60
2018-06-02T12:14:45.208Z,19.70
2018-06-02T12:17:12.825Z,19.70
2018-06-02T12:19:40.504Z,19.90
2018-06-02T12:22:08.097Z,20.00
2018-06-02T12:24:35.675Z,20.00
2018-06-02T12:27:03.396Z,20.00
2018-06-02T12:29:30.975Z,19.90
2018-06-02T12:31:59.757Z,19.70
2018-06-02T12:34:27.375Z,19.70
2018-06-02T12:36:54.971Z,19.70
2018-06-02T12:39:22.585Z,19.70
2018-06-02T12:41:50.160Z,19.60
2018-06-02T12:44:17.768Z,19.60
2018-06-02T12:46:45.388Z,19.60
2018-06-02T12:49:12.980Z,19.60
2018-06-02T12:51:41.375Z,19.60
2018-06-02T12:54:08.958Z,19.60
2018-06-02T12:56:36.649Z,19.70
2018-06-02T12:59:04.259Z,19.70
2018-06-02T13:01:31.823Z,19.80
2018-06-02T13:03:59.443Z,19.90
2018-06-02T13:06:27.104Z,19.90
2018-06-02T13:08:54.687Z,20.00
2018-06-02T13:11:22.300Z,20.10
2018-06-02T13:13:49.876Z,20.20
2018-06-02T13:16:17.484Z,20.20
2018-06-02T13:18:45.056Z,20.20
2018-06-02T13:21:12.705Z,20.20
2018-06-02T13:23:40.392Z,20.30
2018-06-02T13:26:07.973Z,20.20
2018-06-02T13:28:35.556Z,20.00
2018-06-02T13:31:03.174Z,20.10
2018-06-02T13:33:30.832Z,20.20
2018-06-02T13:35:58.439Z,20.40
2018-06-02T13:38:26.125Z,20.50
2018-06-02T13:40:53.689Z,20.40
2018-06-02T13:43:21.284Z,20.20
2018-06-02T13:45:48.857Z,20.10
2018-06-02T13:48:16.464Z,20.10
2018-06-02T13:50:44.048Z,20.10
2018-06-02T13:53:11.653Z,20.20
2018-06-02T13:55:39.221Z,20.20
2018-06-02T13:58:06.829Z,20.30
2018-06-02T14:00:35.195Z,20.60
2018-06-02T14:03:03.584Z,20.70
2018-06-02T14:05:31.943Z,20.70
2018-06-02T14:07:59.511Z,20.70
2018-06-02T14:10:27.232Z,20.60
2018-06-02T14:12:54.791Z,20.50
2018-06-02T14:15:22.401Z,20.30
2018-06-02T14:17:50.743Z,20.00
2018-06-02T14:20:18.344Z,19.90
2018-06-02T14:22:45.955Z,19.80
2018-06-02T14:25:13.562Z,19.70
2018-06-02T14:27:41.140Z,19.70
2018-06-02T14:30:08.751Z,19.70
2018-06-02T14:32:36.313Z,19.70
2018-06-02T14:35:03.937Z,19.60
2018-06-02T14:37:31.507Z,19.50
2018-06-02T14:39:59.141Z,19.40
2018-06-02T14:42:27.534Z,19.30
2018-06-02T14:44:55.154Z,19.30
2018-06-02T14:47:22.757Z,19.30
2018-06-02T14:49:50.371Z,19.30
2018-06-02T14:52:17.963Z,19.40
2018-06-02T14:54:46.307Z,19.40
2018-06-02T14:57:13.927Z,19.40
2018-06-02T14:59:41.503Z,19.40
2018-06-02T15:02:09.104Z,19.40
2018-06-02T15:04:36.717Z,19.30
2018-06-02T15:07:04.370Z,19.30
2018-06-02T15:09:31.978Z,19.20
2018-06-02T15:11:59.551Z,19.10
2018-06-02T15:14:27.173Z,19.00
2018-06-02T15:16:54.752Z,19.00
2018-06-02T15:19:22.330Z,18.90
2018-06-02T15:21:49.941Z,18.90
2018-06-02T15:24:17.515Z,18.80
2018-06-02T15:26:45.125Z,18.80
2018-06-02T15:29:12.701Z,18.80
2018-06-02T15:31:40.312Z,18.80
2018-06-02T15:34:07.937Z,18.80
2018-06-02T15:36:35.901Z,18.80
2018-06-02T15:39:05.001Z,18.70
2018-06-02T15:41:32.701Z,18.70
2018-06-02T15:44:00.305Z,18.80
2018-06-02T15:46:27.883Z,18.80
2018-06-02T15:48:56.272Z,18.80
2018-06-02T15:51:23.885Z,18.80
2018-06-02T15:53:51.469Z,18.80
2018-06-02T15:56:19.852Z,18.80
2018-06-02T15:58:48.207Z,18.80
2018-06-02T16:01:15.809Z,18.80
2018-06-02T16:03:43.425Z,18.70
2018-06-02T16:06:10.996Z,18.70
2018-06-02T16:08:38.613Z,18.70
2018-06-02T16:11:06.208Z,18.70
2018-06-02T16:13:33.848Z,18.70
2018-06-02T16:16:01.428Z,18.70
2018-06-02T16:18:29.050Z,18.80
2018-06-02T16:20:56.637Z,18.80
2018-06-02T16:23:24.251Z,18.80
2018-06-02T16:25:52.675Z,18.90
2018-06-02T16:28:20.249Z,18.90
2018-06-02T16:30:47.867Z,18.90
2018-06-02T16:33:15.485Z,19.00
2018-06-02T16:35:43.097Z,19.00
2018-06-02T16:38:10.721Z,18.90
2018-06-02T16:40:38.339Z,18.90
2018-06-02T16:43:05.953Z,18.90
2018-06-02T16:45:33.539Z,18.90
2018-06-02T16:48:01.469Z,18.90
2018-06-02T16:50:29.064Z,18.90
2018-06-02T16:52:56.688Z,18.80
2018-06-02T16:55:24.261Z,18.80
2018-06-02T16:57:51.938Z,18.80
2018-06-02T17:00:19.587Z,18.80
2018-06-02T17:02:47.186Z,18.80
2018-06-02T17:05:14.838Z,18.80
2018-06-02T17:07:42.425Z,18.80
2018-06-02T17:10:10.092Z,18.90
2018-06-02T17:12:37.673Z,18.90
2018-06-02T17:15:05.291Z,18.90
2018-06-02T17:17:32.885Z,19.00
2018-06-02T17:20:00.560Z,19.00
2018-06-02T17:22:28.288Z,19.00
2018-06-02T17:24:56.037Z,19.10
2018-06-02T17:27:23.632Z,19.10
2018-06-02T17:29:51.216Z,19.20
2018-06-02T17:32:18.830Z,19.20
2018-06-02T17:34:46.453Z,19.20
2018-06-02T17:37:14.068Z,19.20
2018-06-02T17:39:41.661Z,19.20
2018-06-02T17:42:09.285Z,19.10
2018-06-02T17:44:36.943Z,19.10
2018-06-02T17:47:04.560Z,19.10
2018-06-02T17:49:32.188Z,19.10
2018-06-02T17:51:59.770Z,19.10
2018-06-02T17:54:27.364Z,19.20
2018-06-02T17:56:55.754Z,19.30
2018-06-02T17:59:23.384Z,19.30
2018-06-02T18:01:50.974Z,19.40
2018-06-02T18:04:19.315Z,19.40
2018-06-02T18:06:46.949Z,19.30
2018-06-02T18:09:14.584Z,19.40
2018-06-02T18:11:42.214Z,19.40
2018-06-02T18:14:09.799Z,19.30
2018-06-02T18:16:37.422Z,19.30
2018-06-02T18:19:05.021Z,19.20
2018-06-02T18:21:32.665Z,19.20
2018-06-02T18:24:01.016Z,19.20
2018-06-02T18:26:28.604Z,19.20
2018-06-02T18:28:56.991Z,19.10
2018-06-02T18:31:25.333Z,19.00
2018-06-02T18:33:52.955Z,19.00
2018-06-02T18:36:20.535Z,19.00
2018-06-02T18:38:48.155Z,18.90
2018-06-02T18:41:15.835Z,18.90
2018-06-02T18:43:43.452Z,18.80
2018-06-02T18:46:11.030Z,18.80
2018-06-02T18:48:38.653Z,18.60
2018-06-02T18:51:06.233Z,18.40
2018-06-02T18:53:34.660Z,18.20
2018-06-02T18:56:03.050Z,18.10
2018-06-02T18:58:30.654Z,18.10
2018-06-02T19:00:58.321Z,18.10
2018-06-02T19:03:25.933Z,18.10
2018-06-02T19:05:53.521Z,18.10
2018-06-02T19:08:21.139Z,18.00
2018-06-02T19:10:48.740Z,18.00
2018-06-02T19:13:16.374Z,18.10
2018-06-02T19:15:43.975Z,18.10
2018-06-02T19:18:11.591Z,18.10
2018-06-02T19:20:39.218Z,18.10
2018-06-02T19:23:06.800Z,18.10
2018-06-02T19:25:35.146Z,18.20
2018-06-02T19:28:02.781Z,18.10
2018-06-02T19:30:30.365Z,18.10
2018-06-02T19:32:57.953Z,18.20
2018-06-02T19:35:26.344Z,18.20
2018-06-02T19:37:53.948Z,18.20
2018-06-02T19:40:21.572Z,18.20
2018-06-02T19:42:49.960Z,18.10
2018-06-02T19:45:17.596Z,18.10
2018-06-02T19:47:45.950Z,18.10
2018-06-02T19:50:13.572Z,18.10
2018-06-02T19:52:41.193Z,18.10
2018-06-02T19:55:08.835Z,18.00
2018-06-02T19:57:36.422Z,18.00
2018-06-02T20:00:04.002Z,18.00
2018-06-02T20:02:32.393Z,17.90
2018-06-02T20:04:59.977Z,17.90
2018-06-02T20:07:27.594Z,17.90
2018-06-02T20:09:55.951Z,17.90
2018-06-02T20:12:23.623Z,17.90
2018-06-02T20:14:51.237Z,17.90
2018-06-02T20:17:18.853Z,17.80
2018-06-02T20:19:46.436Z,17.80
2018-06-02T20:22:14.826Z,17.80
2018-06-02T20:27:16.273Z,17.70
2018-06-02T20:29:43.852Z,17.70
2018-06-02T20:32:11.474Z,17.70
2018-06-02T20:34:39.069Z,17.60
2018-06-02T20:37:06.708Z,17.60
2018-06-02T20:39:35.313Z,17.50
2018-06-02T20:42:03.664Z,17.50
2018-06-02T20:44:31.283Z,17.50
2018-06-02T20:46:58.866Z,17.40
2018-06-02T20:49:26.479Z,17.40
2018-06-02T20:51:54.160Z,17.40
2018-06-02T20:54:21.763Z,17.30
2018-06-02T20:56:49.373Z,17.30
2018-06-02T20:59:17.006Z,17.30
2018-06-02T21:01:45.362Z,17.30
2018-06-02T21:04:12.944Z,17.30
2018-06-02T21:06:40.563Z,17.40
2018-06-02T21:09:08.136Z,17.40
2018-06-02T21:11:35.787Z,17.40
2018-06-02T21:14:03.363Z,17.30
2018-06-02T21:16:30.982Z,17.30
2018-06-02T21:18:58.573Z,17.30
2018-06-02T21:21:26.200Z,17.20
2018-06-02T21:23:53.796Z,17.20
2018-06-02T21:26:21.417Z,17.20
2018-06-02T21:28:48.997Z,17.20
2018-06-02T21:31:16.627Z,17.10
2018-06-02T21:33:44.223Z,17.10
2018-06-02T21:36:11.812Z,17.10
2018-06-02T21:38:39.445Z,17.10
2018-06-02T21:41:07.034Z,17.10
2018-06-02T21:43:34.657Z,17.10
2018-06-02T21:46:02.234Z,17.10
2018-06-02T21:48:29.860Z,17.00
2018-06-02T21:50:58.255Z,17.00
2018-06-02T21:53:25.872Z,17.00
2018-06-02T21:55:53.454Z,17.00
2018-06-02T21:58:21.076Z,16.90
2018-06-02T22:00:48.659Z,16.90
2018-06-02T22:03:16.244Z,16.80
2018-06-02T22:05:44.633Z,16.80
2018-06-02T22:08:12.981Z,16.80
2018-06-02T22:10:40.606Z,16.80
2018-06-02T22:13:08.248Z,16.80
2018-06-02T22:15:35.844Z,16.70
2018-06-02T22:18:03.568Z,16.70
2018-06-02T22:20:33.299Z,16.60
2018-06-02T22:23:01.129Z,16.60
2018-06-02T22:25:29.659Z,16.50
2018-06-02T22:27:57.361Z,16.50
2018-06-02T22:30:25.039Z,16.50
2018-06-02T22:32:53.516Z,16.40
2018-06-02T22:35:21.368Z,16.40
2018-06-02T22:37:48.953Z,16.40
2018-06-02T22:40:17.341Z,16.30
2018-06-02T22:42:45.003Z,16.30
2018-06-02T22:45:13.044Z,16.20
2018-06-02T22:47:41.838Z,16.20
2018-06-02T22:50:09.553Z,16.10
2018-06-02T22:52:37.163Z,16.10
2018-06-02T22:55:04.795Z,16.10
2018-06-02T22:57:32.432Z,16.10
2018-06-02T23:00:00.052Z,16.10
2018-06-02T23:02:28.408Z,15.90
2018-06-02T23:04:56.084Z,15.90
2018-06-02T23:07:23.713Z,15.80
2018-06-02T23:09:51.341Z,15.80
2018-06-02T23:12:18.937Z,15.70
2018-06-02T23:14:46.513Z,15.60
2018-06-02T23:17:14.147Z,15.60
2018-06-02T23:19:41.771Z,15.50
2018-06-02T23:25:39.872Z,15.40
2018-06-02T23:33:05.885Z,15.30
2018-06-02T23:35:34.388Z,15.30
2018-06-02T23:38:02.915Z,15.30
2018-06-02T23:40:31.404Z,15.30
2018-06-02T23:43:00.047Z,15.40
2018-06-02T23:45:28.517Z,15.50
2018-06-02T23:47:57.044Z,15.50
2018-06-02T23:50:25.823Z,15.60
2018-06-02T23:55:22.605Z,15.80
2018-06-02T23:57:51.145Z,15.80
